sensor_id;sensor_type;location;lat;lon;timestamp;P1;durP1;ratioP1;P2;durP2;ratioP2
1436;SDS011;712;51.026;13.792;2023-02-28T00:00:49;9.47;;;3.20;;
1436;SDS011;712;51.026;13.792;2023-02-28T00:03:15;7.10;;;3.00;;
1436;SDS011;712;51.026;13.792;2023-02-28T00:05:40;8.57;;;3.37;;
1436;SDS011;712;51.026;13.792;2023-02-28T00:08:06;8.35;;;3.03;;
1436;SDS011;712;51.026;13.792;2023-02-28T00:10:31;7.32;;;3.03;;
1436;SDS011;712;51.026;13.792;2023-02-28T00:12:59;8.97;;;3.07;;
1436;SDS011;712;51.026;13.792;2023-02-28T00:15:25;8.75;;;3.47;;
1436;SDS011;712;51.026;13.792;2023-02-28T00:17:50;8.37;;;3.07;;
1436;SDS011;712;51.026;13.792;2023-02-28T00:20:15;7.33;;;3.20;;
1436;SDS011;712;51.026;13.792;2023-02-28T00:22:42;9.30;;;3.10;;
1436;SDS011;712;51.026;13.792;2023-02-28T00:25:12;7.68;;;3.08;;
1436;SDS011;712;51.026;13.792;2023-02-28T00:27:38;8.65;;;2.92;;
1436;SDS011;712;51.026;13.792;2023-02-28T00:30:04;7.10;;;3.00;;
1436;SDS011;712;51.026;13.792;2023-02-28T00:32:30;7.38;;;3.10;;
1436;SDS011;712;51.026;13.792;2023-02-28T00:34:55;8.63;;;3.75;;
1436;SDS011;712;51.026;13.792;2023-02-28T00:37:20;10.35;;;3.50;;
1436;SDS011;712;51.026;13.792;2023-02-28T00:39:45;10.07;;;3.40;;
1436;SDS011;712;51.026;13.792;2023-02-28T00:42:11;8.88;;;3.15;;
1436;SDS011;712;51.026;13.792;2023-02-28T00:44:36;7.57;;;3.30;;
1436;SDS011;712;51.026;13.792;2023-02-28T00:47:01;8.48;;;3.88;;
1436;SDS011;712;51.026;13.792;2023-02-28T00:49:26;8.10;;;3.33;;
1436;SDS011;712;51.026;13.792;2023-02-28T00:51:52;7.57;;;3.23;;
1436;SDS011;712;51.026;13.792;2023-02-28T00:54:17;8.52;;;3.15;;
1436;SDS011;712;51.026;13.792;2023-02-28T00:56:42;9.27;;;3.35;;
1436;SDS011;712;51.026;13.792;2023-02-28T00:59:08;8.83;;;3.30;;
1436;SDS011;712;51.026;13.792;2023-02-28T01:01:33;9.65;;;3.30;;
1436;SDS011;712;51.026;13.792;2023-02-28T01:03:58;9.32;;;3.33;;
1436;SDS011;712;51.026;13.792;2023-02-28T01:06:23;8.55;;;2.95;;
1436;SDS011;712;51.026;13.792;2023-02-28T01:08:49;8.87;;;3.70;;
1436;SDS011;712;51.026;13.792;2023-02-28T01:11:14;10.27;;;3.58;;
1436;SDS011;712;51.026;13.792;2023-02-28T01:13:40;10.45;;;3.72;;
1436;SDS011;712;51.026;13.792;2023-02-28T01:16:06;10.55;;;3.75;;
1436;SDS011;712;51.026;13.792;2023-02-28T01:18:31;7.50;;;3.22;;
1436;SDS011;712;51.026;13.792;2023-02-28T01:20:56;9.70;;;3.30;;
1436;SDS011;712;51.026;13.792;2023-02-28T01:23:22;7.95;;;3.25;;
1436;SDS011;712;51.026;13.792;2023-02-28T01:25:48;11.35;;;3.45;;
1436;SDS011;712;51.026;13.792;2023-02-28T01:28:13;10.05;;;3.90;;
1436;SDS011;712;51.026;13.792;2023-02-28T01:30:38;9.50;;;3.72;;
1436;SDS011;712;51.026;13.792;2023-02-28T01:33:04;9.17;;;3.80;;
1436;SDS011;712;51.026;13.792;2023-02-28T01:35:31;8.75;;;4.00;;
1436;SDS011;712;51.026;13.792;2023-02-28T01:37:56;8.90;;;3.70;;
1436;SDS011;712;51.026;13.792;2023-02-28T01:40:22;10.40;;;3.90;;
1436;SDS011;712;51.026;13.792;2023-02-28T01:42:47;9.20;;;3.60;;
1436;SDS011;712;51.026;13.792;2023-02-28T01:45:19;12.45;;;4.13;;
1436;SDS011;712;51.026;13.792;2023-02-28T01:47:46;9.88;;;3.55;;
1436;SDS011;712;51.026;13.792;2023-02-28T01:50:14;9.52;;;4.00;;
1436;SDS011;712;51.026;13.792;2023-02-28T01:55:05;9.75;;;3.08;;
1436;SDS011;712;51.026;13.792;2023-02-28T01:57:32;10.20;;;3.50;;
1436;SDS011;712;51.026;13.792;2023-02-28T02:00:04;10.30;;;3.90;;
1436;SDS011;712;51.026;13.792;2023-02-28T02:02:30;10.52;;;3.88;;
1436;SDS011;712;51.026;13.792;2023-02-28T02:07:20;10.02;;;3.58;;
1436;SDS011;712;51.026;13.792;2023-02-28T02:09:46;10.00;;;3.85;;
1436;SDS011;712;51.026;13.792;2023-02-28T02:12:26;8.37;;;4.13;;
1436;SDS011;712;51.026;13.792;2023-02-28T02:15:00;8.30;;;3.88;;
1436;SDS011;712;51.026;13.792;2023-02-28T02:27:48;12.23;;;4.50;;
1436;SDS011;712;51.026;13.792;2023-02-28T02:33:23;9.85;;;3.55;;
1436;SDS011;712;51.026;13.792;2023-02-28T02:35:52;9.15;;;3.65;;
1436;SDS011;712;51.026;13.792;2023-02-28T02:40:53;10.10;;;3.90;;
1436;SDS011;712;51.026;13.792;2023-02-28T02:43:22;9.23;;;4.13;;
1436;SDS011;712;51.026;13.792;2023-02-28T02:45:51;10.63;;;3.75;;
1436;SDS011;712;51.026;13.792;2023-02-28T02:48:18;10.60;;;4.03;;
1436;SDS011;712;51.026;13.792;2023-02-28T02:50:47;11.25;;;4.10;;
1436;SDS011;712;51.026;13.792;2023-02-28T02:53:14;12.25;;;4.28;;
1436;SDS011;712;51.026;13.792;2023-02-28T02:55:43;9.68;;;4.20;;
1436;SDS011;712;51.026;13.792;2023-02-28T02:58:10;10.43;;;4.20;;
1436;SDS011;712;51.026;13.792;2023-02-28T03:00:42;7.78;;;3.72;;
1436;SDS011;712;51.026;13.792;2023-02-28T03:03:08;12.63;;;4.50;;
1436;SDS011;712;51.026;13.792;2023-02-28T03:05:36;11.90;;;4.45;;
1436;SDS011;712;51.026;13.792;2023-02-28T03:08:04;11.25;;;4.18;;
1436;SDS011;712;51.026;13.792;2023-02-28T03:10:37;11.07;;;4.20;;
1436;SDS011;712;51.026;13.792;2023-02-28T03:13:11;12.07;;;4.72;;
1436;SDS011;712;51.026;13.792;2023-02-28T03:15:42;9.05;;;3.97;;
1436;SDS011;712;51.026;13.792;2023-02-28T03:18:10;10.25;;;4.40;;
1436;SDS011;712;51.026;13.792;2023-02-28T03:20:48;12.07;;;4.22;;
1436;SDS011;712;51.026;13.792;2023-02-28T03:23:19;9.65;;;3.95;;
1436;SDS011;712;51.026;13.792;2023-02-28T03:25:51;13.73;;;5.13;;
1436;SDS011;712;51.026;13.792;2023-02-28T03:28:41;12.38;;;4.70;;
1436;SDS011;712;51.026;13.792;2023-02-28T03:31:15;12.07;;;4.10;;
1436;SDS011;712;51.026;13.792;2023-02-28T03:33:44;12.63;;;4.05;;
1436;SDS011;712;51.026;13.792;2023-02-28T03:36:14;12.93;;;5.20;;
1436;SDS011;712;51.026;13.792;2023-02-28T03:38:43;10.88;;;4.28;;
1436;SDS011;712;51.026;13.792;2023-02-28T03:41:13;12.40;;;4.93;;
1436;SDS011;712;51.026;13.792;2023-02-28T03:43:40;10.18;;;4.72;;
1436;SDS011;712;51.026;13.792;2023-02-28T03:46:08;12.52;;;5.00;;
1436;SDS011;712;51.026;13.792;2023-02-28T03:48:41;12.13;;;4.57;;
1436;SDS011;712;51.026;13.792;2023-02-28T03:51:08;11.55;;;4.75;;
1436;SDS011;712;51.026;13.792;2023-02-28T03:53:57;10.15;;;4.88;;
1436;SDS011;712;51.026;13.792;2023-02-28T03:56:22;12.25;;;4.80;;
1436;SDS011;712;51.026;13.792;2023-02-28T03:59:05;11.10;;;4.70;;
1436;SDS011;712;51.026;13.792;2023-02-28T04:01:34;11.57;;;4.60;;
1436;SDS011;712;51.026;13.792;2023-02-28T04:04:00;13.40;;;5.15;;
1436;SDS011;712;51.026;13.792;2023-02-28T04:06:26;10.32;;;4.35;;
1436;SDS011;712;51.026;13.792;2023-02-28T04:08:52;12.60;;;5.32;;
1436;SDS011;712;51.026;13.792;2023-02-28T04:11:22;12.93;;;4.50;;
1436;SDS011;712;51.026;13.792;2023-02-28T04:13:48;11.00;;;4.60;;
1436;SDS011;712;51.026;13.792;2023-02-28T04:16:13;10.20;;;4.87;;
1436;SDS011;712;51.026;13.792;2023-02-28T04:18:39;12.23;;;4.85;;
1436;SDS011;712;51.026;13.792;2023-02-28T04:21:04;11.07;;;5.05;;
1436;SDS011;712;51.026;13.792;2023-02-28T04:23:30;10.07;;;4.50;;
1436;SDS011;712;51.026;13.792;2023-02-28T04:25:55;13.65;;;4.63;;
1436;SDS011;712;51.026;13.792;2023-02-28T04:28:20;13.07;;;4.57;;
1436;SDS011;712;51.026;13.792;2023-02-28T04:30:45;11.43;;;4.93;;
1436;SDS011;712;51.026;13.792;2023-02-28T04:33:11;12.68;;;5.22;;
1436;SDS011;712;51.026;13.792;2023-02-28T04:35:36;12.90;;;5.45;;
1436;SDS011;712;51.026;13.792;2023-02-28T04:38:01;11.98;;;4.90;;
1436;SDS011;712;51.026;13.792;2023-02-28T04:40:26;13.48;;;5.07;;
1436;SDS011;712;51.026;13.792;2023-02-28T04:42:51;12.68;;;5.13;;
1436;SDS011;712;51.026;13.792;2023-02-28T04:45:17;11.07;;;5.03;;
1436;SDS011;712;51.026;13.792;2023-02-28T04:47:42;12.47;;;5.23;;
1436;SDS011;712;51.026;13.792;2023-02-28T04:50:07;12.73;;;5.68;;
1436;SDS011;712;51.026;13.792;2023-02-28T04:52:33;15.20;;;5.68;;
1436;SDS011;712;51.026;13.792;2023-02-28T04:54:58;12.23;;;4.93;;
1436;SDS011;712;51.026;13.792;2023-02-28T04:57:24;14.38;;;5.43;;
1436;SDS011;712;51.026;13.792;2023-02-28T04:59:49;12.55;;;4.97;;
1436;SDS011;712;51.026;13.792;2023-02-28T05:02:14;13.75;;;6.22;;
1436;SDS011;712;51.026;13.792;2023-02-28T05:04:39;13.30;;;5.50;;
1436;SDS011;712;51.026;13.792;2023-02-28T05:07:04;13.77;;;5.82;;
1436;SDS011;712;51.026;13.792;2023-02-28T05:09:29;13.45;;;5.05;;
1436;SDS011;712;51.026;13.792;2023-02-28T05:11:55;16.10;;;5.88;;
1436;SDS011;712;51.026;13.792;2023-02-28T05:14:20;12.52;;;5.82;;
1436;SDS011;712;51.026;13.792;2023-02-28T05:16:45;13.47;;;5.20;;
1436;SDS011;712;51.026;13.792;2023-02-28T05:19:11;16.25;;;6.05;;
1436;SDS011;712;51.026;13.792;2023-02-28T05:21:37;12.20;;;5.97;;
1436;SDS011;712;51.026;13.792;2023-02-28T05:24:03;14.43;;;5.70;;
1436;SDS011;712;51.026;13.792;2023-02-28T05:26:29;13.60;;;5.45;;
1436;SDS011;712;51.026;13.792;2023-02-28T05:28:55;15.23;;;5.93;;
1436;SDS011;712;51.026;13.792;2023-02-28T05:31:20;12.35;;;5.70;;
1436;SDS011;712;51.026;13.792;2023-02-28T05:33:45;12.33;;;5.53;;
1436;SDS011;712;51.026;13.792;2023-02-28T05:36:11;17.08;;;6.25;;
1436;SDS011;712;51.026;13.792;2023-02-28T05:38:36;14.27;;;6.10;;
1436;SDS011;712;51.026;13.792;2023-02-28T05:41:04;13.90;;;6.05;;
1436;SDS011;712;51.026;13.792;2023-02-28T05:43:29;12.90;;;5.47;;
1436;SDS011;712;51.026;13.792;2023-02-28T05:45:55;12.60;;;5.90;;
1436;SDS011;712;51.026;13.792;2023-02-28T05:48:20;13.50;;;5.43;;
1436;SDS011;712;51.026;13.792;2023-02-28T05:50:45;13.90;;;6.07;;
1436;SDS011;712;51.026;13.792;2023-02-28T05:53:11;13.48;;;5.63;;
1436;SDS011;712;51.026;13.792;2023-02-28T05:55:36;12.83;;;5.43;;
1436;SDS011;712;51.026;13.792;2023-02-28T05:58:02;14.98;;;5.82;;
1436;SDS011;712;51.026;13.792;2023-02-28T06:00:27;15.20;;;6.05;;
1436;SDS011;712;51.026;13.792;2023-02-28T06:02:52;14.20;;;6.27;;
1436;SDS011;712;51.026;13.792;2023-02-28T06:05:21;13.77;;;5.30;;
1436;SDS011;712;51.026;13.792;2023-02-28T06:07:46;13.47;;;5.97;;
1436;SDS011;712;51.026;13.792;2023-02-28T06:10:11;19.90;;;6.70;;
1436;SDS011;712;51.026;13.792;2023-02-28T06:12:37;14.45;;;6.00;;
1436;SDS011;712;51.026;13.792;2023-02-28T06:15:05;14.57;;;6.00;;
1436;SDS011;712;51.026;13.792;2023-02-28T06:17:30;16.45;;;6.03;;
1436;SDS011;712;51.026;13.792;2023-02-28T06:19:55;15.33;;;6.10;;
1436;SDS011;712;51.026;13.792;2023-02-28T06:22:20;14.50;;;6.60;;
1436;SDS011;712;51.026;13.792;2023-02-28T06:24:46;15.55;;;6.60;;
1436;SDS011;712;51.026;13.792;2023-02-28T06:27:11;16.67;;;6.70;;
1436;SDS011;712;51.026;13.792;2023-02-28T06:29:36;18.70;;;7.00;;
1436;SDS011;712;51.026;13.792;2023-02-28T06:32:04;12.70;;;5.75;;
1436;SDS011;712;51.026;13.792;2023-02-28T06:34:29;16.70;;;6.57;;
1436;SDS011;712;51.026;13.792;2023-02-28T06:36:55;13.98;;;5.60;;
1436;SDS011;712;51.026;13.792;2023-02-28T06:39:20;16.40;;;6.50;;
1436;SDS011;712;51.026;13.792;2023-02-28T06:41:46;16.55;;;6.10;;
1436;SDS011;712;51.026;13.792;2023-02-28T06:44:13;15.85;;;6.40;;
1436;SDS011;712;51.026;13.792;2023-02-28T06:46:39;15.23;;;6.13;;
1436;SDS011;712;51.026;13.792;2023-02-28T06:49:05;18.10;;;8.05;;
1436;SDS011;712;51.026;13.792;2023-02-28T06:51:33;15.98;;;7.35;;
1436;SDS011;712;51.026;13.792;2023-02-28T06:53:58;19.30;;;7.97;;
1436;SDS011;712;51.026;13.792;2023-02-28T06:56:23;16.08;;;7.50;;
1436;SDS011;712;51.026;13.792;2023-02-28T06:58:49;17.60;;;7.17;;
1436;SDS011;712;51.026;13.792;2023-02-28T07:01:14;17.80;;;7.30;;
1436;SDS011;712;51.026;13.792;2023-02-28T07:03:40;16.20;;;6.87;;
1436;SDS011;712;51.026;13.792;2023-02-28T07:06:05;17.38;;;6.95;;
1436;SDS011;712;51.026;13.792;2023-02-28T07:08:30;16.80;;;6.33;;
1436;SDS011;712;51.026;13.792;2023-02-28T07:10:56;14.38;;;6.30;;
1436;SDS011;712;51.026;13.792;2023-02-28T07:13:22;14.40;;;6.00;;
1436;SDS011;712;51.026;13.792;2023-02-28T07:15:57;13.27;;;6.00;;
1436;SDS011;712;51.026;13.792;2023-02-28T07:18:22;14.43;;;6.05;;
1436;SDS011;712;51.026;13.792;2023-02-28T07:20:47;12.27;;;5.35;;
1436;SDS011;712;51.026;13.792;2023-02-28T07:23:13;13.07;;;5.80;;
1436;SDS011;712;51.026;13.792;2023-02-28T07:25:38;11.65;;;5.03;;
1436;SDS011;712;51.026;13.792;2023-02-28T07:28:04;13.27;;;5.65;;
1436;SDS011;712;51.026;13.792;2023-02-28T07:30:29;14.43;;;5.90;;
1436;SDS011;712;51.026;13.792;2023-02-28T07:32:54;15.73;;;5.88;;
1436;SDS011;712;51.026;13.792;2023-02-28T07:35:20;14.73;;;5.93;;
1436;SDS011;712;51.026;13.792;2023-02-28T07:37:46;15.00;;;6.47;;
1436;SDS011;712;51.026;13.792;2023-02-28T07:40:12;16.08;;;6.45;;
1436;SDS011;712;51.026;13.792;2023-02-28T07:42:37;14.20;;;6.10;;
1436;SDS011;712;51.026;13.792;2023-02-28T07:45:03;17.33;;;6.75;;
1436;SDS011;712;51.026;13.792;2023-02-28T07:47:29;15.85;;;6.18;;
1436;SDS011;712;51.026;13.792;2023-02-28T07:49:54;13.60;;;5.93;;
1436;SDS011;712;51.026;13.792;2023-02-28T07:52:20;18.73;;;6.40;;
1436;SDS011;712;51.026;13.792;2023-02-28T07:54:45;16.20;;;6.25;;
1436;SDS011;712;51.026;13.792;2023-02-28T07:57:10;14.98;;;5.88;;
1436;SDS011;712;51.026;13.792;2023-02-28T07:59:35;16.10;;;6.72;;
1436;SDS011;712;51.026;13.792;2023-02-28T08:02:00;15.07;;;6.33;;
1436;SDS011;712;51.026;13.792;2023-02-28T08:04:25;17.17;;;6.10;;
1436;SDS011;712;51.026;13.792;2023-02-28T08:06:51;18.30;;;6.63;;
1436;SDS011;712;51.026;13.792;2023-02-28T08:09:17;16.05;;;6.43;;
1436;SDS011;712;51.026;13.792;2023-02-28T08:11:43;17.30;;;6.82;;
1436;SDS011;712;51.026;13.792;2023-02-28T08:14:08;17.42;;;6.32;;
1436;SDS011;712;51.026;13.792;2023-02-28T08:16:33;15.67;;;6.43;;
1436;SDS011;712;51.026;13.792;2023-02-28T08:18:58;16.73;;;6.43;;
1436;SDS011;712;51.026;13.792;2023-02-28T08:21:23;16.37;;;7.37;;
1436;SDS011;712;51.026;13.792;2023-02-28T08:23:49;18.13;;;6.30;;
1436;SDS011;712;51.026;13.792;2023-02-28T08:26:15;14.25;;;6.25;;
1436;SDS011;712;51.026;13.792;2023-02-28T08:28:41;18.55;;;6.80;;
1436;SDS011;712;51.026;13.792;2023-02-28T08:31:10;15.90;;;6.90;;
1436;SDS011;712;51.026;13.792;2023-02-28T08:33:36;15.13;;;6.40;;
1436;SDS011;712;51.026;13.792;2023-02-28T08:36:01;16.38;;;6.35;;
1436;SDS011;712;51.026;13.792;2023-02-28T08:38:26;16.83;;;7.00;;
1436;SDS011;712;51.026;13.792;2023-02-28T08:40:58;19.15;;;6.90;;
1436;SDS011;712;51.026;13.792;2023-02-28T08:43:24;15.40;;;6.97;;
1436;SDS011;712;51.026;13.792;2023-02-28T08:45:51;17.80;;;6.82;;
1436;SDS011;712;51.026;13.792;2023-02-28T08:48:16;17.27;;;6.78;;
1436;SDS011;712;51.026;13.792;2023-02-28T08:50:41;14.68;;;6.35;;
1436;SDS011;712;51.026;13.792;2023-02-28T08:53:06;16.92;;;6.53;;
1436;SDS011;712;51.026;13.792;2023-02-28T08:55:31;16.50;;;6.38;;
1436;SDS011;712;51.026;13.792;2023-02-28T08:57:56;15.05;;;6.35;;
1436;SDS011;712;51.026;13.792;2023-02-28T09:00:23;14.18;;;6.15;;
1436;SDS011;712;51.026;13.792;2023-02-28T09:02:48;15.93;;;6.40;;
1436;SDS011;712;51.026;13.792;2023-02-28T09:05:13;13.50;;;5.80;;
1436;SDS011;712;51.026;13.792;2023-02-28T09:07:38;15.02;;;6.15;;
1436;SDS011;712;51.026;13.792;2023-02-28T09:10:04;15.23;;;6.43;;
1436;SDS011;712;51.026;13.792;2023-02-28T09:12:31;13.50;;;5.95;;
1436;SDS011;712;51.026;13.792;2023-02-28T09:14:57;14.02;;;5.93;;
1436;SDS011;712;51.026;13.792;2023-02-28T09:17:22;14.07;;;5.80;;
1436;SDS011;712;51.026;13.792;2023-02-28T09:19:48;12.35;;;5.20;;
1436;SDS011;712;51.026;13.792;2023-02-28T09:22:13;13.93;;;5.95;;
1436;SDS011;712;51.026;13.792;2023-02-28T09:24:39;10.23;;;5.20;;
1436;SDS011;712;51.026;13.792;2023-02-28T09:27:04;11.87;;;5.17;;
1436;SDS011;712;51.026;13.792;2023-02-28T09:29:29;11.97;;;5.40;;
1436;SDS011;712;51.026;13.792;2023-02-28T09:31:54;12.70;;;5.55;;
1436;SDS011;712;51.026;13.792;2023-02-28T09:34:20;12.48;;;5.03;;
1436;SDS011;712;51.026;13.792;2023-02-28T09:36:46;12.95;;;5.30;;
1436;SDS011;712;51.026;13.792;2023-02-28T09:39:11;16.03;;;5.37;;
1436;SDS011;712;51.026;13.792;2023-02-28T09:41:38;13.45;;;5.15;;
1436;SDS011;712;51.026;13.792;2023-02-28T09:44:12;11.20;;;4.60;;
1436;SDS011;712;51.026;13.792;2023-02-28T09:46:41;11.48;;;4.47;;
1436;SDS011;712;51.026;13.792;2023-02-28T09:49:10;10.65;;;4.95;;
1436;SDS011;712;51.026;13.792;2023-02-28T09:54:15;12.63;;;4.88;;
1436;SDS011;712;51.026;13.792;2023-02-28T09:56:43;15.20;;;6.10;;
1436;SDS011;712;51.026;13.792;2023-02-28T10:01:47;12.32;;;4.97;;
1436;SDS011;712;51.026;13.792;2023-02-28T10:06:58;12.70;;;5.10;;
1436;SDS011;712;51.026;13.792;2023-02-28T10:09:27;12.93;;;5.00;;
1436;SDS011;712;51.026;13.792;2023-02-28T10:11:56;10.63;;;4.53;;
1436;SDS011;712;51.026;13.792;2023-02-28T10:14:25;13.50;;;4.82;;
1436;SDS011;712;51.026;13.792;2023-02-28T10:17:04;11.65;;;4.90;;
1436;SDS011;712;51.026;13.792;2023-02-28T10:19:33;13.93;;;5.28;;
1436;SDS011;712;51.026;13.792;2023-02-28T10:22:01;12.13;;;5.30;;
1436;SDS011;712;51.026;13.792;2023-02-28T10:24:35;16.05;;;5.40;;
1436;SDS011;712;51.026;13.792;2023-02-28T10:27:06;11.75;;;5.28;;
1436;SDS011;712;51.026;13.792;2023-02-28T10:29:31;13.45;;;5.20;;
1436;SDS011;712;51.026;13.792;2023-02-28T10:31:58;12.20;;;5.05;;
1436;SDS011;712;51.026;13.792;2023-02-28T10:34:25;12.88;;;5.32;;
1436;SDS011;712;51.026;13.792;2023-02-28T10:36:50;13.35;;;5.57;;
1436;SDS011;712;51.026;13.792;2023-02-28T10:39:33;12.38;;;5.10;;
1436;SDS011;712;51.026;13.792;2023-02-28T10:41:58;11.52;;;5.00;;
1436;SDS011;712;51.026;13.792;2023-02-28T10:44:24;12.75;;;5.00;;
1436;SDS011;712;51.026;13.792;2023-02-28T10:46:49;11.95;;;5.05;;
1436;SDS011;712;51.026;13.792;2023-02-28T10:49:22;11.73;;;4.82;;
1436;SDS011;712;51.026;13.792;2023-02-28T10:51:48;13.63;;;5.78;;
1436;SDS011;712;51.026;13.792;2023-02-28T10:54:30;11.20;;;5.35;;
1436;SDS011;712;51.026;13.792;2023-02-28T10:57:06;11.73;;;5.20;;
1436;SDS011;712;51.026;13.792;2023-02-28T10:59:32;11.20;;;5.18;;
1436;SDS011;712;51.026;13.792;2023-02-28T11:01:57;10.37;;;4.90;;
1436;SDS011;712;51.026;13.792;2023-02-28T11:06:47;11.80;;;5.28;;
1436;SDS011;712;51.026;13.792;2023-02-28T11:09:27;12.60;;;5.60;;
1436;SDS011;712;51.026;13.792;2023-02-28T11:11:54;12.02;;;5.72;;
1436;SDS011;712;51.026;13.792;2023-02-28T11:14:20;11.17;;;5.17;;
1436;SDS011;712;51.026;13.792;2023-02-28T11:16:46;12.40;;;5.28;;
1436;SDS011;712;51.026;13.792;2023-02-28T11:19:17;10.00;;;5.30;;
1436;SDS011;712;51.026;13.792;2023-02-28T11:21:48;10.50;;;5.13;;
1436;SDS011;712;51.026;13.792;2023-02-28T11:24:22;12.00;;;4.95;;
1436;SDS011;712;51.026;13.792;2023-02-28T11:26:48;12.02;;;5.07;;
1436;SDS011;712;51.026;13.792;2023-02-28T11:29:21;12.43;;;5.00;;
1436;SDS011;712;51.026;13.792;2023-02-28T11:32:31;12.75;;;4.75;;
1436;SDS011;712;51.026;13.792;2023-02-28T11:34:33;11.80;;;4.88;;
1436;SDS011;712;51.026;13.792;2023-02-28T11:36:59;14.87;;;4.73;;
1436;SDS011;712;51.026;13.792;2023-02-28T11:39:25;13.32;;;5.18;;
1436;SDS011;712;51.026;13.792;2023-02-28T11:42:06;10.60;;;5.00;;
1436;SDS011;712;51.026;13.792;2023-02-28T11:47:11;11.75;;;5.20;;
1436;SDS011;712;51.026;13.792;2023-02-28T11:49:42;10.45;;;4.95;;
1436;SDS011;712;51.026;13.792;2023-02-28T11:57:49;9.77;;;4.35;;
1436;SDS011;712;51.026;13.792;2023-02-28T12:00:30;12.48;;;5.15;;
1436;SDS011;712;51.026;13.792;2023-02-28T12:03:09;11.18;;;5.05;;
1436;SDS011;712;51.026;13.792;2023-02-28T12:05:46;10.15;;;4.53;;
1436;SDS011;712;51.026;13.792;2023-02-28T12:08:26;11.82;;;5.20;;
1436;SDS011;712;51.026;13.792;2023-02-28T12:10:59;11.25;;;4.50;;
1436;SDS011;712;51.026;13.792;2023-02-28T12:13:41;12.93;;;5.43;;
1436;SDS011;712;51.026;13.792;2023-02-28T12:16:17;13.80;;;5.85;;
1436;SDS011;712;51.026;13.792;2023-02-28T12:18:49;11.20;;;5.18;;
1436;SDS011;712;51.026;13.792;2023-02-28T12:21:20;11.50;;;4.80;;
1436;SDS011;712;51.026;13.792;2023-02-28T12:23:58;9.52;;;4.60;;
1436;SDS011;712;51.026;13.792;2023-02-28T12:26:44;12.70;;;4.90;;
1436;SDS011;712;51.026;13.792;2023-02-28T12:29:14;11.70;;;5.03;;
1436;SDS011;712;51.026;13.792;2023-02-28T12:31:43;11.40;;;4.70;;
1436;SDS011;712;51.026;13.792;2023-02-28T12:34:12;11.63;;;5.18;;
1436;SDS011;712;51.026;13.792;2023-02-28T12:36:38;11.68;;;5.05;;
1436;SDS011;712;51.026;13.792;2023-02-28T12:39:08;11.63;;;5.32;;
1436;SDS011;712;51.026;13.792;2023-02-28T12:41:42;12.55;;;5.40;;
1436;SDS011;712;51.026;13.792;2023-02-28T12:44:20;10.93;;;5.07;;
1436;SDS011;712;51.026;13.792;2023-02-28T12:46:47;12.88;;;5.55;;
1436;SDS011;712;51.026;13.792;2023-02-28T12:49:18;11.02;;;4.82;;
1436;SDS011;712;51.026;13.792;2023-02-28T12:51:44;11.32;;;5.60;;
1436;SDS011;712;51.026;13.792;2023-02-28T12:54:12;9.38;;;5.10;;
1436;SDS011;712;51.026;13.792;2023-02-28T12:59:18;10.10;;;4.83;;
1436;SDS011;712;51.026;13.792;2023-02-28T13:04:33;11.93;;;5.47;;
1436;SDS011;712;51.026;13.792;2023-02-28T13:07:15;12.48;;;5.90;;
1436;SDS011;712;51.026;13.792;2023-02-28T13:09:51;10.45;;;5.20;;
1436;SDS011;712;51.026;13.792;2023-02-28T13:12:16;13.35;;;5.70;;
1436;SDS011;712;51.026;13.792;2023-02-28T13:14:41;11.97;;;5.23;;
1436;SDS011;712;51.026;13.792;2023-02-28T13:19:34;13.07;;;5.97;;
1436;SDS011;712;51.026;13.792;2023-02-28T13:22:00;13.40;;;6.05;;
1436;SDS011;712;51.026;13.792;2023-02-28T13:29:35;14.55;;;5.97;;
1436;SDS011;712;51.026;13.792;2023-02-28T13:34:33;13.95;;;6.57;;
1436;SDS011;712;51.026;13.792;2023-02-28T13:42:22;16.65;;;6.85;;
1436;SDS011;712;51.026;13.792;2023-02-28T13:49:53;13.83;;;6.13;;
1436;SDS011;712;51.026;13.792;2023-02-28T13:52:20;16.85;;;6.60;;
1436;SDS011;712;51.026;13.792;2023-02-28T13:54:51;16.60;;;7.03;;
1436;SDS011;712;51.026;13.792;2023-02-28T14:05:17;13.60;;;6.78;;
1436;SDS011;712;51.026;13.792;2023-02-28T14:07:52;14.55;;;6.75;;
1436;SDS011;712;51.026;13.792;2023-02-28T14:10:31;14.82;;;6.85;;
1436;SDS011;712;51.026;13.792;2023-02-28T14:13:12;15.57;;;6.93;;
1436;SDS011;712;51.026;13.792;2023-02-28T14:15:55;12.75;;;6.20;;
1436;SDS011;712;51.026;13.792;2023-02-28T14:18:34;14.65;;;7.00;;
1436;SDS011;712;51.026;13.792;2023-02-28T14:21:09;14.35;;;6.82;;
1436;SDS011;712;51.026;13.792;2023-02-28T14:23:45;13.68;;;6.00;;
1436;SDS011;712;51.026;13.792;2023-02-28T14:26:23;18.33;;;6.93;;
1436;SDS011;712;51.026;13.792;2023-02-28T14:29:37;14.48;;;6.45;;
1436;SDS011;712;51.026;13.792;2023-02-28T14:31:54;13.88;;;6.43;;
1436;SDS011;712;51.026;13.792;2023-02-28T14:36:47;16.35;;;6.88;;
1436;SDS011;712;51.026;13.792;2023-02-28T14:39:18;13.00;;;6.00;;
1436;SDS011;712;51.026;13.792;2023-02-28T14:41:44;16.23;;;7.13;;
1436;SDS011;712;51.026;13.792;2023-02-28T14:44:13;18.05;;;7.00;;
1436;SDS011;712;51.026;13.792;2023-02-28T14:46:39;16.05;;;6.72;;
1436;SDS011;712;51.026;13.792;2023-02-28T14:49:05;13.38;;;6.47;;
1436;SDS011;712;51.026;13.792;2023-02-28T14:51:32;16.25;;;7.10;;
1436;SDS011;712;51.026;13.792;2023-02-28T14:53:59;14.52;;;6.95;;
1436;SDS011;712;51.026;13.792;2023-02-28T14:56:30;15.65;;;6.28;;
1436;SDS011;712;51.026;13.792;2023-02-28T14:58:57;16.42;;;6.95;;
1436;SDS011;712;51.026;13.792;2023-02-28T15:01:23;17.63;;;7.17;;
1436;SDS011;712;51.026;13.792;2023-02-28T15:03:49;15.68;;;7.10;;
1436;SDS011;712;51.026;13.792;2023-02-28T15:06:21;16.25;;;6.88;;
1436;SDS011;712;51.026;13.792;2023-02-28T15:08:48;14.15;;;6.72;;
1436;SDS011;712;51.026;13.792;2023-02-28T15:11:31;15.98;;;6.53;;
1436;SDS011;712;51.026;13.792;2023-02-28T15:13:56;16.13;;;6.57;;
1436;SDS011;712;51.026;13.792;2023-02-28T15:18:59;15.20;;;6.90;;
1436;SDS011;712;51.026;13.792;2023-02-28T15:21:25;14.48;;;6.60;;
1436;SDS011;712;51.026;13.792;2023-02-28T15:23:54;13.02;;;6.28;;
1436;SDS011;712;51.026;13.792;2023-02-28T15:26:20;14.27;;;7.28;;
1436;SDS011;712;51.026;13.792;2023-02-28T15:28:48;13.98;;;6.88;;
1436;SDS011;712;51.026;13.792;2023-02-28T15:31:28;14.23;;;6.82;;
1436;SDS011;712;51.026;13.792;2023-02-28T15:33:55;15.98;;;6.32;;
1436;SDS011;712;51.026;13.792;2023-02-28T15:36:20;14.07;;;6.55;;
1436;SDS011;712;51.026;13.792;2023-02-28T15:38:50;18.33;;;7.07;;
1436;SDS011;712;51.026;13.792;2023-02-28T15:41:49;14.07;;;6.43;;
1436;SDS011;712;51.026;13.792;2023-02-28T15:47:01;18.40;;;6.97;;
1436;SDS011;712;51.026;13.792;2023-02-28T15:49:27;18.13;;;7.07;;
1436;SDS011;712;51.026;13.792;2023-02-28T15:51:53;13.77;;;6.53;;
1436;SDS011;712;51.026;13.792;2023-02-28T15:54:21;15.00;;;7.13;;
1436;SDS011;712;51.026;13.792;2023-02-28T15:56:50;13.55;;;6.50;;
1436;SDS011;712;51.026;13.792;2023-02-28T15:59:19;15.60;;;6.65;;
1436;SDS011;712;51.026;13.792;2023-02-28T16:01:45;13.55;;;6.82;;
1436;SDS011;712;51.026;13.792;2023-02-28T16:04:17;14.23;;;6.43;;
1436;SDS011;712;51.026;13.792;2023-02-28T16:06:43;17.25;;;7.47;;
1436;SDS011;712;51.026;13.792;2023-02-28T16:09:10;16.45;;;7.40;;
1436;SDS011;712;51.026;13.792;2023-02-28T16:11:37;14.80;;;7.10;;
1436;SDS011;712;51.026;13.792;2023-02-28T16:14:03;15.20;;;7.32;;
1436;SDS011;712;51.026;13.792;2023-02-28T16:16:29;16.08;;;6.95;;
1436;SDS011;712;51.026;13.792;2023-02-28T16:18:55;17.00;;;7.20;;
1436;SDS011;712;51.026;13.792;2023-02-28T16:21:20;16.77;;;6.93;;
1436;SDS011;712;51.026;13.792;2023-02-28T16:23:46;17.20;;;7.83;;
1436;SDS011;712;51.026;13.792;2023-02-28T16:26:23;18.13;;;8.27;;
1436;SDS011;712;51.026;13.792;2023-02-28T16:28:49;15.00;;;6.95;;